Time;durP1;ratioP1;P1;durP2;ratioP2;P2;SDS_P1;SDS_P2;PMS_P1;PMS_P2;Temp;Humidity;BMP_temperature;BMP_pressure;BME280_temperature;BME280_humidity;BME280_pressure;Samples;Min_cycle;Max_cycle;Signal;HPM_P1;HPM_P2
2021/05/03 00:01:44;;;;;;;;;;;;;;;9.98;64.07;99582.88;5136224;27;19968;-75
2021/05/03 00:04:11;;;;;;;;;;;;;;;9.96;64.22;99588.81;5136218;27;20297;-75
2021/05/03 00:06:39;;;;;;;;;;;;;;;9.97;64.28;99595.63;5136203;27;20022;-75
2021/05/03 00:09:07;;;;;;;;;;;;;;;9.94;64.48;99596.47;5136187;27;19923;-76
2021/05/03 00:11:35;;;;;;;;;;;;;;;9.96;64.86;99593.91;5117688;27;19945;-75
2021/05/03 00:14:04;;;;;;;;;;;;;;;10.00;64.48;99601.59;5135960;27;19928;-75
2021/05/03 00:16:33;;;;;;;;;;;;;;;10.03;64.58;99593.06;5135962;27;20342;-75
2021/05/03 00:19:00;;;;;;;;;;;;;;;10.06;64.47;99590.53;5117934;27;19931;-75
2021/05/03 00:21:28;;;;;;;;;;;;;;;10.05;64.74;99599.84;5135895;27;20326;-75
2021/05/03 00:23:56;;;;;;;;;;;;;;;10.03;64.48;99600.72;5135774;27;19930;-75
2021/05/03 00:26:24;;;;;;;;;;;;;;;9.95;65.43;99604.97;5117491;27;19959;-75
2021/05/03 00:28:52;;;;;;;;;;;;;;;9.90;65.14;99609.22;5135799;27;19930;-75
2021/05/03 00:31:21;;;;;;;;;;;;;;;9.87;65.18;99610.06;5135632;27;19924;-75
2021/05/03 00:33:49;;;;;;;;;;;;;;;9.82;65.89;99601.56;5117335;27;19936;-75
2021/05/03 00:36:17;;;;;;;;;;;;;;;9.83;66.26;99612.59;5135621;27;19927;-75
2021/05/03 00:38:44;;;;;;;;;;;;;;;9.83;66.02;99610.91;5135297;27;19923;-74
2021/05/03 00:41:12;;;;;;;;;;;;;;;9.85;66.06;99621.09;5135098;27;20384;-76
2021/05/03 00:43:40;;;;;;;;;;;;;;;9.83;66.55;99621.13;5117344;27;19923;-75
2021/05/03 00:46:08;;;;;;;;;;;;;;;9.85;65.89;99621.09;5117198;27;19930;-75
2021/05/03 00:48:37;;;;;;;;;;;;;;;9.83;66.75;99627.91;5135428;27;19931;-75
2021/05/03 00:51:04;;;;;;;;;;;;;;;9.82;67.10;99621.94;5117072;27;19923;-74
2021/05/03 00:53:32;;;;;;;;;;;;;;;9.79;67.52;99633.84;5135367;27;20416;-75
2021/05/03 00:56:00;;;;;;;;;;;;;;;9.77;66.87;99632.97;5135225;27;19927;-75
2021/05/03 00:58:28;;;;;;;;;;;;;;;9.75;67.63;99629.56;5135538;27;20022;-74
2021/05/03 01:00:56;;;;;;;;;;;;;;;9.74;67.74;99627.91;5134941;27;19974;-75
2021/05/03 01:03:23;;;;;;;;;;;;;;;9.73;68.95;99626.19;5135280;27;19927;-75
2021/05/03 01:05:52;;;;;;;;;;;;;;;9.72;68.14;99639.75;5135086;27;20414;-75
2021/05/03 01:08:20;;;;;;;;;;;;;;;9.72;68.22;99640.63;5116832;27;19924;-75
2021/05/03 01:10:48;;;;;;;;;;;;;;;9.72;68.36;99648.25;5135073;27;19977;-75
2021/05/03 01:13:17;;;;;;;;;;;;;;;9.67;67.99;99656.75;5117273;27;19924;-75
2021/05/03 01:15:45;;;;;;;;;;;;;;;9.63;68.61;99644.84;5135305;27;19924;-75
2021/05/03 01:18:12;;;;;;;;;;;;;;;9.57;67.45;99649.94;5135060;27;20031;-75
2021/05/03 01:20:41;;;;;;;;;;;;;;;9.50;68.23;99643.13;5135282;27;20396;-75
2021/05/03 01:23:10;;;;;;;;;;;;;;;9.37;68.57;99648.19;5117064;28;19923;-75
2021/05/03 01:25:41;;;;;;;;;;;;;;;9.27;69.49;99656.63;5134866;28;19934;-75
2021/05/03 01:28:09;;;;;;;;;;;;;;;9.24;69.60;99655.75;5134999;28;19930;-75
2021/05/03 01:30:39;;;;;;;;;;;;;;;9.20;69.70;99664.22;5134818;28;20377;-75
2021/05/03 01:33:08;;;;;;;;;;;;;;;9.21;69.41;99663.41;5134893;28;19947;-75
2021/05/03 01:35:36;;;;;;;;;;;;;;;9.21;69.71;99666.78;5134777;28;19923;-75
2021/05/03 01:38:05;;;;;;;;;;;;;;;9.10;70.15;99667.56;5134840;28;20009;-75
2021/05/03 01:40:36;;;;;;;;;;;;;;;9.09;70.23;99670.97;5134799;28;20030;-75
2021/05/03 01:43:11;;;;;;;;;;;;;;;9.10;70.12;99678.59;5134859;28;19959;-75
2021/05/03 01:45:40;;;;;;;;;;;;;;;9.10;69.19;99668.44;5134806;28;19970;-75
2021/05/03 01:48:08;;;;;;;;;;;;;;;9.13;67.72;99678.63;5134764;28;19970;-75
2021/05/03 01:50:37;;;;;;;;;;;;;;;9.17;67.29;99669.28;5135187;27;19928;-75
2021/05/03 01:53:05;;;;;;;;;;;;;;;9.15;67.12;99679.50;5138805;27;20381;-75
2021/05/03 01:55:34;;;;;;;;;;;;;;;9.12;66.87;99682.00;5138793;27;19941;-75
2021/05/03 01:58:03;;;;;;;;;;;;;;;9.03;66.61;99681.97;5138987;27;19927;-75
2021/05/03 02:00:38;;;;;;;;;;;;;;;8.96;66.30;99685.31;5139125;27;19992;-75
2021/05/03 02:03:19;;;;;;;;;;;;;;;8.92;66.73;99688.72;5138704;27;19923;-75
2021/05/03 02:05:59;;;;;;;;;;;;;;;8.90;66.81;99690.38;5138610;27;19924;-75
2021/05/03 02:08:30;;;;;;;;;;;;;;;8.86;66.65;99690.34;5138498;27;19923;-75
2021/05/03 02:10:59;;;;;;;;;;;;;;;8.77;66.47;99701.31;5138818;27;20414;-75
2021/05/03 02:13:27;;;;;;;;;;;;;;;8.68;66.79;99704.66;5138477;27;20420;-75
2021/05/03 02:15:55;;;;;;;;;;;;;;;8.58;66.44;99697.81;5138399;27;19923;-76
2021/05/03 02:18:23;;;;;;;;;;;;;;;8.53;66.75;99708.78;5138339;27;19924;-75
2021/05/03 02:20:51;;;;;;;;;;;;;;;8.50;66.57;99708.75;5138625;27;19930;-75
2021/05/03 02:23:18;;;;;;;;;;;;;;;8.48;66.91;99713.84;5120250;27;19985;-75
2021/05/03 02:25:46;;;;;;;;;;;;;;;8.46;66.74;99707.03;5119936;27;20026;-75
2021/05/03 02:28:15;;;;;;;;;;;;;;;8.46;66.78;99707.88;5119726;27;19961;-75
2021/05/03 02:30:43;;;;;;;;;;;;;;;8.43;67.29;99709.53;5137980;27;20021;-75
2021/05/03 02:33:11;;;;;;;;;;;;;;;8.40;67.08;99717.13;5138290;27;20369;-75
2021/05/03 02:35:39;;;;;;;;;;;;;;;8.28;66.66;99719.59;5138035;27;19949;-75
2021/05/03 02:38:09;;;;;;;;;;;;;;;8.17;67.50;99718.59;5119636;27;19923;-75
2021/05/03 02:40:37;;;;;;;;;;;;;;;8.09;67.66;99711.75;5137900;27;20274;-75
2021/05/03 02:43:05;;;;;;;;;;;;;;;8.06;67.68;99721.88;5137853;27;19959;-75
2021/05/03 02:45:34;;;;;;;;;;;;;;;7.97;68.57;99721.78;5137830;27;19927;-75
2021/05/03 02:48:01;;;;;;;;;;;;;;;7.89;67.66;99722.56;5137755;27;20373;-75
2021/05/03 02:50:30;;;;;;;;;;;;;;;7.86;68.82;99723.38;5138006;27;19924;-75
2021/05/03 02:52:57;;;;;;;;;;;;;;;7.85;68.58;99723.34;5137663;27;19923;-75
2021/05/03 02:55:25;;;;;;;;;;;;;;;7.80;69.00;99723.31;5137652;27;19939;-75
2021/05/03 02:57:54;;;;;;;;;;;;;;;7.60;68.61;99729.88;5137574;27;19935;-76
2021/05/03 03:00:24;;;;;;;;;;;;;;;7.46;69.34;99731.38;5137863;27;19968;-75
2021/05/03 03:02:53;;;;;;;;;;;;;;;7.32;69.36;99737.94;5136440;27;19962;-76
2021/05/03 03:05:21;;;;;;;;;;;;;;;7.12;69.46;99736.84;5137494;27;19924;-76
2021/05/03 03:07:49;;;;;;;;;;;;;;;6.98;69.88;99740.88;5137367;27;19930;-76
2021/05/03 03:10:17;;;;;;;;;;;;;;;6.91;70.66;99749.22;5137346;27;20448;-75
2021/05/03 03:12:45;;;;;;;;;;;;;;;6.88;70.78;99751.72;5137329;27;19949;-75
2021/05/03 03:15:15;;;;;;;;;;;;;;;6.89;70.60;99750.88;5137243;27;20032;-75
2021/05/03 03:17:45;;;;;;;;;;;;;;;6.91;70.67;99746.69;5137255;27;19931;-75
2021/05/03 03:20:15;;;;;;;;;;;;;;;6.87;71.49;99747.47;5137241;27;19966;-75
2021/05/03 03:22:43;;;;;;;;;;;;;;;6.85;71.00;99749.13;5137052;27;19924;-75
2021/05/03 03:25:11;;;;;;;;;;;;;;;6.81;70.95;99757.53;5119154;27;19972;-75
2021/05/03 03:27:40;;;;;;;;;;;;;;;6.80;71.44;99759.19;5137034;27;20270;-75
2021/05/03 03:30:09;;;;;;;;;;;;;;;6.79;71.43;99754.13;5137166;27;19924;-75
2021/05/03 03:32:39;;;;;;;;;;;;;;;6.81;71.76;99762.59;5136898;27;19924;-75
2021/05/03 03:35:08;;;;;;;;;;;;;;;6.84;71.68;99772.81;5136951;27;20403;-75
2021/05/03 03:37:36;;;;;;;;;;;;;;;6.90;71.57;99783.03;5136809;27;20365;-75
2021/05/03 03:40:05;;;;;;;;;;;;;;;6.91;71.42;99779.69;5136704;27;19976;-75
2021/05/03 03:42:32;;;;;;;;;;;;;;;6.98;71.71;99784.00;5136608;27;19930;-76
2021/05/03 03:45:00;;;;;;;;;;;;;;;7.01;71.60;99784.88;5136664;27;19982;-75
2021/05/03 03:47:28;;;;;;;;;;;;;;;7.05;71.38;99783.28;5136661;27;19923;-75
2021/05/03 03:49:55;;;;;;;;;;;;;;;7.10;71.92;99776.59;5136356;27;19928;-75
2021/05/03 03:52:24;;;;;;;;;;;;;;;7.12;71.91;99787.59;5118181;27;19927;-76
2021/05/03 03:54:53;;;;;;;;;;;;;;;7.14;71.39;99788.47;5136515;27;20304;-75
2021/05/03 03:57:21;;;;;;;;;;;;;;;7.16;71.02;99802.03;5117983;27;19951;-75
2021/05/03 03:59:52;;;;;;;;;;;;;;;7.16;71.44;99802.03;5136311;27;20033;-75
2021/05/03 04:02:20;;;;;;;;;;;;;;;7.24;71.29;99800.47;5136183;27;19948;-75
2021/05/03 04:04:59;;;;;;;;;;;;;;;7.29;71.16;99798.84;5136319;27;20393;-75
2021/05/03 04:07:32;;;;;;;;;;;;;;;7.36;71.11;99805.72;5136301;27;19924;-75
2021/05/03 04:10:09;;;;;;;;;;;;;;;7.46;71.02;99796.53;5136147;27;19969;-75
2021/05/03 04:12:54;;;;;;;;;;;;;;;7.55;70.90;99806.81;5136183;27;19931;-76
2021/05/03 04:26:00;;;;;;;;;;;;;;;7.83;70.22;99830.06;5135925;27;20019;-75
2021/05/03 04:28:27;;;;;;;;;;;;;;;7.98;70.51;99840.41;5135810;27;19923;-75
2021/05/03 04:30:55;;;;;;;;;;;;;;;8.20;70.15;99840.66;5135678;27;19968;-75
2021/05/03 04:33:24;;;;;;;;;;;;;;;8.37;69.77;99839.19;5135686;27;20388;-75
2021/05/03 04:35:52;;;;;;;;;;;;;;;8.44;69.09;99846.03;5135922;27;19973;-75
2021/05/03 04:38:20;;;;;;;;;;;;;;;8.50;69.57;99848.63;5135679;27;19923;-75
2021/05/03 04:40:48;;;;;;;;;;;;;;;8.57;68.49;99842.75;5135452;27;20266;-75
2021/05/03 04:43:16;;;;;;;;;;;;;;;8.70;69.28;99848.00;5135431;27;19924;-76
2021/05/03 04:45:44;;;;;;;;;;;;;;;8.85;69.08;99849.84;5135463;27;20373;-76
2021/05/03 04:48:12;;;;;;;;;;;;;;;8.99;68.29;99848.25;5135488;27;19924;-75
2021/05/03 04:50:45;;;;;;;;;;;;;;;9.14;68.57;99848.38;5116996;27;20010;-75
2021/05/03 04:53:13;;;;;;;;;;;;;;;9.23;67.03;99847.59;5135048;27;19923;-75
2021/05/03 04:55:41;;;;;;;;;;;;;;;9.34;67.29;99851.06;5083472;27;19923;-75
2021/05/03 04:58:09;;;;;;;;;;;;;;;9.42;66.63;99855.38;5135336;27;19924;-75
2021/05/03 05:00:37;;;;;;;;;;;;;;;9.51;66.27;99853.72;5135284;27;20377;-76
2021/05/03 05:03:05;;;;;;;;;;;;;;;9.59;66.85;99858.03;5134893;27;20333;-76
2021/05/03 05:05:33;;;;;;;;;;;;;;;9.72;66.54;99859.78;5135614;27;19923;-75
2021/05/03 05:08:01;;;;;;;;;;;;;;;9.81;65.48;99859.81;5135247;27;19929;-75
2021/05/03 05:10:28;;;;;;;;;;;;;;;9.92;65.77;99857.34;5135111;27;20357;-75
2021/05/03 05:12:56;;;;;;;;;;;;;;;10.06;66.04;99860.81;5135058;27;19931;-76
2021/05/03 05:15:24;;;;;;;;;;;;;;;10.19;65.41;99861.75;5135044;27;19972;-75
2021/05/03 05:17:59;;;;;;;;;;;;;;;10.27;65.36;99871.13;5135103;27;19923;-75
2021/05/03 05:20:27;;;;;;;;;;;;;;;10.36;65.46;99871.16;5116940;28;19930;-75
2021/05/03 05:22:55;;;;;;;;;;;;;;;10.40;64.28;99872.88;5134631;28;20376;-75
2021/05/03 05:25:23;;;;;;;;;;;;;;;10.49;63.50;99877.13;5134588;27;19928;-76
2021/05/03 05:27:51;;;;;;;;;;;;;;;10.64;63.91;99882.28;5099644;28;19960;-76
2021/05/03 05:30:19;;;;;;;;;;;;;;;10.80;63.35;99868.69;5116651;28;19959;-76
2021/05/03 05:32:47;;;;;;;;;;;;;;;10.96;62.31;99879.78;5116937;28;19982;-76
2021/05/03 05:35:15;;;;;;;;;;;;;;;11.04;61.56;99883.19;5135064;28;19923;-76
2021/05/03 05:37:44;;;;;;;;;;;;;;;11.15;60.66;99881.50;5099812;28;19934;-76
2021/05/03 05:40:12;;;;;;;;;;;;;;;11.25;59.97;99883.22;5134757;28;19962;-76
2021/05/03 05:42:40;;;;;;;;;;;;;;;11.39;59.28;99884.06;5134778;28;19924;-76
2021/05/03 05:45:08;;;;;;;;;;;;;;;11.45;58.76;99890.00;5134772;28;19937;-76
2021/05/03 05:47:36;;;;;;;;;;;;;;;11.56;58.61;99895.13;5134968;28;20373;-76
2021/05/03 05:50:05;;;;;;;;;;;;;;;11.64;58.46;99905.28;5134725;28;19923;-75
2021/05/03 05:52:35;;;;;;;;;;;;;;;11.72;57.61;99895.94;5134472;28;19931;-76
2021/05/03 05:55:03;;;;;;;;;;;;;;;11.77;56.97;99897.66;5116673;28;19928;-76
2021/05/03 05:57:31;;;;;;;;;;;;;;;11.89;56.77;99899.31;5134556;28;19923;-76
2021/05/03 05:59:59;;;;;;;;;;;;;;;11.95;56.40;99900.16;5134667;28;20372;-76
2021/05/03 06:02:28;;;;;;;;;;;;;;;12.05;55.96;99901.84;5134376;28;19962;-76
2021/05/03 06:04:56;;;;;;;;;;;;;;;12.12;55.82;99901.84;5134522;28;19927;-76
2021/05/03 06:07:24;;;;;;;;;;;;;;;12.08;54.61;99904.41;5116147;28;20023;-76
2021/05/03 06:09:58;;;;;;;;;;;;;;;12.05;54.55;99901.84;5134618;28;20038;-76
2021/05/03 06:12:26;;;;;;;;;;;;;;;12.07;54.03;99899.25;5134432;28;19966;-75
2021/05/03 06:14:53;;;;;;;;;;;;;;;12.10;53.58;99910.34;5099147;28;20018;-73
2021/05/03 06:17:21;;;;;;;;;;;;;;;12.25;53.70;99913.72;5116039;28;19924;-75
2021/05/03 06:19:52;;;;;;;;;;;;;;;12.39;53.35;99922.19;5134717;28;19930;-75
2021/05/03 06:22:19;;;;;;;;;;;;;;;12.54;52.87;99924.69;5134341;28;19924;-75
2021/05/03 06:24:47;;;;;;;;;;;;;;;12.63;52.71;99933.16;5133939;28;20404;-76
2021/05/03 06:27:16;;;;;;;;;;;;;;;12.77;52.23;99927.97;5134184;28;20405;-75
2021/05/03 06:29:44;;;;;;;;;;;;;;;12.78;51.59;99927.13;5134163;28;19941;-75
2021/05/03 06:32:12;;;;;;;;;;;;;;;12.85;51.10;99933.91;5134296;28;19923;-75
2021/05/03 06:34:40;;;;;;;;;;;;;;;12.98;51.18;99935.50;5134095;28;19962;-74
2021/05/03 06:37:08;;;;;;;;;;;;;;;13.06;50.42;99938.91;5134170;27;19923;-74
2021/05/03 06:39:37;;;;;;;;;;;;;;;13.23;50.49;99934.53;5137593;27;19931;-74
2021/05/03 06:42:06;;;;;;;;;;;;;;;13.34;49.67;99935.28;5137881;27;20010;-74
2021/05/03 06:44:36;;;;;;;;;;;;;;;13.43;49.15;99937.81;5137837;27;20372;-76
2021/05/03 06:47:05;;;;;;;;;;;;;;;13.44;47.79;99941.19;5137813;27;20104;-76
2021/05/03 06:49:32;;;;;;;;;;;;;;;13.37;47.66;99940.41;5137642;27;20380;-75
2021/05/03 06:52:00;;;;;;;;;;;;;;;13.44;47.79;99942.06;5119194;27;19930;-74
2021/05/03 06:54:28;;;;;;;;;;;;;;;13.57;47.76;99932.53;5137591;27;19929;-75
2021/05/03 06:56:56;;;;;;;;;;;;;;;13.58;46.65;99941.94;5137552;27;20441;-75
2021/05/03 06:59:24;;;;;;;;;;;;;;;13.62;46.27;99940.19;5137611;27;19934;-75
2021/05/03 07:01:53;;;;;;;;;;;;;;;13.60;46.42;99947.06;5137168;27;19924;-75
2021/05/03 07:04:21;;;;;;;;;;;;;;;13.60;45.79;99952.19;5137732;27;19962;-75
2021/05/03 07:06:50;;;;;;;;;;;;;;;13.70;46.11;99953.81;5137388;27;20017;-76
2021/05/03 07:09:17;;;;;;;;;;;;;;;13.80;45.32;99955.41;5137323;27;19930;-76
2021/05/03 07:11:46;;;;;;;;;;;;;;;13.76;45.03;99949.47;5137278;27;19976;-76
2021/05/03 07:14:13;;;;;;;;;;;;;;;13.90;45.17;99951.91;5119010;27;20340;-75
2021/05/03 07:16:41;;;;;;;;;;;;;;;13.89;44.91;99945.09;5137182;27;19969;-75
2021/05/03 07:19:10;;;;;;;;;;;;;;;13.83;44.84;99951.13;5137210;27;19949;-75
2021/05/03 07:21:38;;;;;;;;;;;;;;;13.91;44.89;99957.03;5137043;27;20385;-76
2021/05/03 07:24:07;;;;;;;;;;;;;;;13.99;44.05;99951.78;5137085;27;19923;-75
2021/05/03 07:26:35;;;;;;;;;;;;;;;14.05;44.16;99956.88;5137241;27;20365;-76
2021/05/03 07:29:03;;;;;;;;;;;;;;;14.18;44.75;99958.44;5137033;27;19976;-76
2021/05/03 07:31:32;;;;;;;;;;;;;;;14.05;44.02;99957.75;5137638;27;19924;-75
2021/05/03 07:34:00;;;;;;;;;;;;;;;14.27;44.29;99972.91;5137156;27;20022;-75
2021/05/03 07:36:28;;;;;;;;;;;;;;;14.28;44.10;99975.44;5136731;27;19923;-75
2021/05/03 07:38:56;;;;;;;;;;;;;;;14.16;42.90;99970.44;5136617;27;20025;-75
2021/05/03 07:41:24;;;;;;;;;;;;;;;14.01;42.17;99976.56;5136831;27;19933;-75
2021/05/03 07:43:52;;;;;;;;;;;;;;;14.31;42.27;99974.59;5136769;27;19923;-74
2021/05/03 07:46:25;;;;;;;;;;;;;;;14.52;42.20;99977.78;5118256;27;19972;-74
2021/05/03 07:48:53;;;;;;;;;;;;;;;14.53;42.58;99982.06;5119133;27;19927;-74
2021/05/03 07:51:21;;;;;;;;;;;;;;;14.42;42.03;99978.75;5118116;27;19924;-76
2021/05/03 07:53:52;;;;;;;;;;;;;;;14.46;41.81;99990.69;5136420;27;19923;-76
2021/05/03 07:56:19;;;;;;;;;;;;;;;14.42;42.16;99994.16;5136162;27;19966;-77
2021/05/03 07:58:49;;;;;;;;;;;;;;;14.45;42.35;99994.13;5136266;27;19923;-75
2021/05/03 08:01:18;;;;;;;;;;;;;;;14.36;42.11;100007.06;5135989;27;19953;-75
2021/05/03 08:03:45;;;;;;;;;;;;;;;14.29;42.36;99997.69;5136244;27;19924;-75
2021/05/03 08:06:14;;;;;;;;;;;;;;;14.20;42.44;99992.66;5136295;27;19923;-76
2021/05/03 08:08:42;;;;;;;;;;;;;;;14.08;42.49;99992.78;5136146;27;19973;-76
2021/05/03 08:11:11;;;;;;;;;;;;;;;13.93;42.45;99998.06;5136041;27;19923;-75
2021/05/03 08:13:41;;;;;;;;;;;;;;;13.79;43.28;100000.75;5136389;27;19968;-76
2021/05/03 08:16:12;;;;;;;;;;;;;;;13.79;43.03;99999.91;5136132;27;19970;-76
2021/05/03 08:18:40;;;;;;;;;;;;;;;13.79;43.23;99989.63;5136066;27;19949;-76
2021/05/03 08:21:08;;;;;;;;;;;;;;;14.07;43.38;99991.94;5135875;27;19931;-76
2021/05/03 08:23:36;;;;;;;;;;;;;;;14.28;43.09;99996.00;5135800;27;19927;-76
2021/05/03 08:26:04;;;;;;;;;;;;;;;14.15;41.89;99994.44;5135823;27;19934;-75
2021/05/03 08:28:33;;;;;;;;;;;;;;;14.04;42.54;99996.22;5136107;27;19955;-75
2021/05/03 08:31:01;;;;;;;;;;;;;;;13.99;42.78;100005.69;5117395;27;19959;-76
2021/05/03 08:33:28;;;;;;;;;;;;;;;13.89;43.28;100002.34;5135631;27;19924;-75
2021/05/03 08:35:56;;;;;;;;;;;;;;;13.96;43.75;100003.19;5135587;27;19923;-76
2021/05/03 08:38:24;;;;;;;;;;;;;;;14.38;44.34;100000.19;5135759;27;19933;-76
2021/05/03 08:40:53;;;;;;;;;;;;;;;14.76;43.97;100003.16;5135449;27;20383;-76
2021/05/03 08:43:22;;;;;;;;;;;;;;;14.60;41.53;100004.22;5117226;27;19923;-75
2021/05/03 08:45:50;;;;;;;;;;;;;;;14.36;40.99;100007.06;5135983;27;19923;-75
2021/05/03 08:48:21;;;;;;;;;;;;;;;14.13;40.78;100006.44;5135695;27;20366;-76
2021/05/03 08:50:56;;;;;;;;;;;;;;;13.94;41.42;100010.88;5135023;27;19977;-75
2021/05/03 08:53:27;;;;;;;;;;;;;;;13.74;41.69;100022.19;5135259;27;19927;-76
2021/05/03 08:55:54;;;;;;;;;;;;;;;13.61;42.10;100016.28;5135329;27;19967;-76
2021/05/03 08:58:22;;;;;;;;;;;;;;;13.66;42.79;100013.69;5116909;27;19963;-76
2021/05/03 09:00:51;;;;;;;;;;;;;;;14.03;43.12;100004.81;5134471;27;19976;-76
2021/05/03 09:03:19;;;;;;;;;;;;;;;14.17;42.98;100013.22;5135274;27;19923;-76
2021/05/03 09:05:47;;;;;;;;;;;;;;;14.05;42.45;100009.06;5135085;27;19938;-75
2021/05/03 09:08:25;;;;;;;;;;;;;;;13.92;42.19;100006.63;5134568;27;19938;-75
2021/05/03 09:10:53;;;;;;;;;;;;;;;14.03;41.86;100007.38;5135147;27;20022;-77
2021/05/03 09:13:26;;;;;;;;;;;;;;;14.35;42.73;100010.50;5134993;27;19931;-76
2021/05/03 09:16:09;;;;;;;;;;;;;;;14.36;41.65;100017.34;5135471;27;19953;-75
2021/05/03 09:18:38;;;;;;;;;;;;;;;14.33;41.18;100012.22;5136310;27;20006;-75
2021/05/03 09:21:06;;;;;;;;;;;;;;;14.26;41.12;100010.56;5135320;27;19923;-75
2021/05/03 09:23:49;;;;;;;;;;;;;;;14.18;40.99;100014.91;5134886;27;19927;-76
2021/05/03 09:26:31;;;;;;;;;;;;;;;14.08;41.23;100014.16;5134095;28;19924;-76
2021/05/03 09:28:58;;;;;;;;;;;;;;;13.94;41.34;100015.19;5135331;28;19923;-76
2021/05/03 09:31:26;;;;;;;;;;;;;;;13.82;41.15;100010.16;5134849;28;20292;-76
2021/05/03 09:33:56;;;;;;;;;;;;;;;13.79;41.38;100010.16;5135116;28;19927;-76
2021/05/03 09:36:25;;;;;;;;;;;;;;;13.82;41.73;100008.41;5135123;28;19923;-76
2021/05/03 09:38:53;;;;;;;;;;;;;;;13.88;41.69;99995.53;5135199;28;19930;-76
2021/05/03 09:41:21;;;;;;;;;;;;;;;14.15;41.03;99984.16;5134770;28;20334;-76
2021/05/03 09:43:50;;;;;;;;;;;;;;;14.64;41.39;99990.47;5134811;28;19924;-75
2021/05/03 09:46:28;;;;;;;;;;;;;;;14.94;41.29;99984.09;5134798;28;19924;-76
2021/05/03 09:48:58;;;;;;;;;;;;;;;15.19;40.50;99975.16;5116798;28;19923;-76
2021/05/03 09:51:43;;;;;;;;;;;;;;;15.41;40.43;99976.53;5134580;28;19962;-76
2021/05/03 09:54:12;;;;;;;;;;;;;;;15.44;40.04;99980.78;5134765;28;19947;-74
2021/05/03 09:56:51;;;;;;;;;;;;;;;15.41;40.17;99986.81;5134812;28;20033;-75
2021/05/03 09:59:25;;;;;;;;;;;;;;;15.22;39.50;99984.53;5134608;28;19927;-75
2021/05/03 10:02:00;;;;;;;;;;;;;;;14.90;39.80;99991.88;5134519;28;19923;-75
2021/05/03 10:04:29;;;;;;;;;;;;;;;14.64;39.90;100000.75;5134776;28;19923;-74
2021/05/03 10:06:57;;;;;;;;;;;;;;;14.51;39.88;100003.47;5134921;28;19924;-76
2021/05/03 10:09:26;;;;;;;;;;;;;;;14.47;40.47;99992.38;5134282;28;19927;-74
2021/05/03 10:11:54;;;;;;;;;;;;;;;14.35;40.25;100000.22;5117018;27;20319;-74
2021/05/03 10:14:22;;;;;;;;;;;;;;;14.21;39.70;99999.47;5138654;27;19966;-74
2021/05/03 10:16:50;;;;;;;;;;;;;;;14.38;40.38;99992.50;5138110;27;19924;-74
2021/05/03 10:19:19;;;;;;;;;;;;;;;14.47;39.50;100005.22;5138278;27;19976;-74
2021/05/03 10:21:48;;;;;;;;;;;;;;;14.54;39.87;99996.56;5119960;27;19923;-75
2021/05/03 10:24:18;;;;;;;;;;;;;;;14.47;40.13;100001.78;5138290;27;19959;-75
2021/05/03 10:26:47;;;;;;;;;;;;;;;14.30;39.44;99994.28;5138711;27;19970;-75
2021/05/03 10:29:24;;;;;;;;;;;;;;;14.15;39.74;99997.00;5120028;27;20010;-74
2021/05/03 10:31:57;;;;;;;;;;;;;;;14.06;39.81;99999.63;5138023;27;20337;-74
2021/05/03 10:34:35;;;;;;;;;;;;;;;14.16;39.72;100003.81;5138342;27;20018;-74
2021/05/03 10:37:04;;;;;;;;;;;;;;;14.56;40.26;99997.44;5138087;27;19923;-74
2021/05/03 10:39:38;;;;;;;;;;;;;;;14.79;40.58;99999.72;5137975;27;19923;-74
2021/05/03 10:42:07;;;;;;;;;;;;;;;14.78;40.10;99988.56;5119845;27;19927;-74
2021/05/03 10:44:38;;;;;;;;;;;;;;;14.82;40.05;99973.13;5137928;27;19948;-75
2021/05/03 10:47:21;;;;;;;;;;;;;;;14.78;39.65;99977.44;5137943;27;19924;-75
2021/05/03 10:49:49;;;;;;;;;;;;;;;14.80;39.63;99980.88;5137233;27;20315;-75
2021/05/03 10:52:31;;;;;;;;;;;;;;;14.77;39.72;99981.75;5137720;27;20343;-75
2021/05/03 10:54:59;;;;;;;;;;;;;;;14.72;39.02;99968.09;5138391;27;19924;-75
2021/05/03 10:57:35;;;;;;;;;;;;;;;14.74;38.23;99975.78;5137671;27;19924;-76
2021/05/03 11:00:08;;;;;;;;;;;;;;;15.06;38.60;99962.50;5137603;27;19963;-75
2021/05/03 11:02:44;;;;;;;;;;;;;;;15.44;38.31;99960.19;5137658;27;20297;-76
2021/05/03 11:05:14;;;;;;;;;;;;;;;15.79;37.09;99952.78;5137746;27;19975;-76
2021/05/03 11:07:53;;;;;;;;;;;;;;;16.02;37.08;99942.94;5119381;27;19954;-76
2021/05/03 11:10:42;;;;;;;;;;;;;;;16.15;36.28;99945.28;5137660;27;19923;-76
2021/05/03 11:13:24;;;;;;;;;;;;;;;15.96;36.25;99945.59;5137076;27;19923;-74
2021/05/03 11:15:52;;;;;;;;;;;;;;;15.63;36.51;99941.06;5136740;27;20344;-74
2021/05/03 11:18:25;;;;;;;;;;;;;;;15.42;35.99;99946.53;5119154;27;19923;-75
2021/05/03 11:21:07;;;;;;;;;;;;;;;15.58;36.61;99937.69;5137455;27;19924;-76
2021/05/03 11:23:37;;;;;;;;;;;;;;;16.05;37.60;99932.53;5136513;27;20385;-75
2021/05/03 11:26:22;;;;;;;;;;;;;;;16.34;36.90;99931.16;5137146;27;20381;-76
2021/05/03 11:28:50;;;;;;;;;;;;;;;16.58;35.81;99930.69;5137108;27;19928;-75
2021/05/03 11:31:20;;;;;;;;;;;;;;;16.82;35.74;99926.72;5136967;27;20088;-75
2021/05/03 11:33:59;;;;;;;;;;;;;;;17.10;35.83;99920.91;5137080;27;19927;-77
2021/05/03 11:36:32;;;;;;;;;;;;;;;16.84;35.33;99927.53;5136967;27;19923;-75
2021/05/03 11:39:07;;;;;;;;;;;;;;;16.46;35.50;99926.59;5136667;27;19967;-74
2021/05/03 11:44:25;;;;;;;;;;;;;;;15.58;35.36;99929.13;5137172;27;20014;-75
2021/05/03 11:46:53;;;;;;;;;;;;;;;15.53;36.54;99936.94;5136958;27;19969;-75
2021/05/03 11:49:23;;;;;;;;;;;;;;;15.69;36.87;99945.25;5136795;27;19927;-75
2021/05/03 11:51:52;;;;;;;;;;;;;;;15.94;36.76;99939.63;5136676;27;19927;-76
2021/05/03 11:54:23;;;;;;;;;;;;;;;16.15;36.19;99946.09;5136867;27;19923;-76
2021/05/03 11:56:56;;;;;;;;;;;;;;;16.45;36.07;99944.66;5136656;27;19924;-75
2021/05/03 11:59:23;;;;;;;;;;;;;;;16.73;35.82;99948.38;5136572;27;19964;-75
2021/05/03 12:02:07;;;;;;;;;;;;;;;16.87;35.19;99938.63;5136290;27;19929;-76
2021/05/03 12:04:38;;;;;;;;;;;;;;;17.13;35.45;99931.13;5136562;27;19924;-76
2021/05/03 12:07:16;;;;;;;;;;;;;;;17.38;34.96;99916.78;5136286;27;19927;-75
2021/05/03 12:09:45;;;;;;;;;;;;;;;17.58;35.27;99928.38;5136716;27;19962;-76
2021/05/03 12:12:16;;;;;;;;;;;;;;;17.76;35.64;99922.72;5117805;27;19923;-75
2021/05/03 12:14:45;;;;;;;;;;;;;;;17.93;35.22;99918.81;5136489;27;19958;-75
2021/05/03 12:17:31;;;;;;;;;;;;;;;17.90;34.29;99915.50;5136067;27;19927;-74
2021/05/03 12:20:04;;;;;;;;;;;;;;;17.63;34.25;99926.53;5136411;27;19948;-76
2021/05/03 12:22:32;;;;;;;;;;;;;;;17.16;33.95;99920.75;5136408;27;20270;-74
2021/05/03 12:25:02;;;;;;;;;;;;;;;16.95;34.37;99931.56;5135965;27;19923;-76
2021/05/03 12:27:31;;;;;;;;;;;;;;;16.60;34.03;99923.78;5117923;27;20297;-75
2021/05/03 12:30:00;;;;;;;;;;;;;;;16.48;34.86;99930.00;5135767;27;19930;-75
2021/05/03 12:32:31;;;;;;;;;;;;;;;16.38;35.11;99928.47;5135826;27;19927;-75
2021/05/03 12:35:05;;;;;;;;;;;;;;;16.16;35.62;99937.50;5135655;27;20403;-74
2021/05/03 12:37:33;;;;;;;;;;;;;;;15.99;35.45;99917.22;5135962;27;19934;-74
2021/05/03 12:40:06;;;;;;;;;;;;;;;15.91;35.76;99925.94;5117248;27;19930;-74
2021/05/03 12:42:40;;;;;;;;;;;;;;;15.76;36.21;99916.81;5135633;27;19924;-74
2021/05/03 12:45:18;;;;;;;;;;;;;;;15.64;35.76;99921.31;5135572;27;19978;-74
2021/05/03 12:47:51;;;;;;;;;;;;;;;15.52;35.89;99922.38;5117795;27;19953;-74
2021/05/03 12:50:26;;;;;;;;;;;;;;;15.48;35.86;99927.59;5135416;27;20388;-76
2021/05/03 12:52:58;;;;;;;;;;;;;;;15.39;35.14;99932.00;5135489;27;19930;-75
2021/05/03 12:55:34;;;;;;;;;;;;;;;15.43;35.43;99927.63;5135289;27;20001;-75
2021/05/03 12:58:15;;;;;;;;;;;;;;;15.50;35.99;99929.25;5135377;27;19969;-75
2021/05/03 13:03:42;;;;;;;;;;;;;;;15.53;35.94;99923.22;5130969;27;20455;-76
2021/05/03 13:06:18;;;;;;;;;;;;;;;15.54;35.71;99917.19;5135245;27;19923;-76
2021/05/03 13:09:04;;;;;;;;;;;;;;;15.77;36.70;99923.63;5135226;27;20278;-76
2021/05/03 13:22:54;;;;;;;;;;;;;;;15.85;34.23;99926.94;5118345;27;20018;-74
2021/05/03 13:28:03;;;;;;;;;;;;;;;16.04;35.12;99919.72;5135049;28;19953;-77
2021/05/03 13:30:30;;;;;;;;;;;;;;;16.15;34.93;99911.78;5135263;28;19951;-76
2021/05/03 13:32:59;;;;;;;;;;;;;;;16.34;35.42;99926.81;5134785;28;20023;-74
2021/05/03 13:35:27;;;;;;;;;;;;;;;16.56;34.57;99912.66;5134748;28;19938;-74